createdAt,value
2019-04-06T00:00:10.170Z,44.03
2019-04-06T00:02:40.629Z,44.50
2019-04-06T00:05:12.166Z,42.77
2019-04-06T00:07:45.368Z,44.10
2019-04-06T00:10:16.379Z,44.17
2019-04-06T00:12:46.855Z,43.80
2019-04-06T00:15:17.325Z,44.23
2019-04-06T00:17:48.364Z,44.83
2019-04-06T00:20:18.923Z,42.60
2019-04-06T00:22:49.425Z,43.07
2019-04-06T00:25:20.279Z,50.13
2019-04-06T00:27:50.757Z,46.27
2019-04-06T00:30:21.422Z,45.03
2019-04-06T00:33:07.433Z,46.30
2019-04-06T00:35:39.169Z,48.33
2019-04-06T00:38:09.658Z,44.77
2019-04-06T00:40:40.156Z,45.23
2019-04-06T00:43:10.677Z,44.00
2019-04-06T00:45:41.137Z,44.13
2019-04-06T00:48:15.028Z,44.20
2019-04-06T00:50:45.454Z,43.70
2019-04-06T00:53:18.256Z,43.93
2019-04-06T00:55:55.675Z,43.33
2019-04-06T00:58:21.755Z,43.20
2019-04-06T01:00:52.788Z,43.07
2019-04-06T01:03:25.809Z,44.33
2019-04-06T01:05:56.192Z,44.57
2019-04-06T01:08:27.043Z,46.13
2019-04-06T01:10:59.889Z,45.00
2019-04-06T01:13:30.483Z,47.07
2019-04-06T01:16:04.939Z,45.23
2019-04-06T01:18:36.967Z,49.10
2019-04-06T01:21:07.433Z,48.70
2019-04-06T01:23:37.892Z,47.90
2019-04-06T01:26:09.075Z,53.77
2019-04-06T01:28:40.554Z,44.27
2019-04-06T01:31:11.013Z,47.13
2019-04-06T01:33:41.737Z,48.57
2019-04-06T01:36:12.207Z,46.30
2019-04-06T01:38:42.607Z,54.63
2019-04-06T01:41:13.398Z,49.13
2019-04-06T01:43:43.958Z,48.57
2019-04-06T01:46:14.845Z,45.27
2019-04-06T01:48:45.292Z,44.33
2019-04-06T01:51:16.111Z,51.17
2019-04-06T01:53:46.916Z,44.73
2019-04-06T01:56:20.614Z,45.07
2019-04-06T01:58:53.597Z,46.73
2019-04-06T02:01:46.959Z,48.83
2019-04-06T02:04:17.393Z,47.23
2019-04-06T02:06:50.111Z,46.13
2019-04-06T02:09:20.755Z,48.00
2019-04-06T02:11:51.640Z,51.03
2019-04-06T02:14:22.121Z,45.27
2019-04-06T02:16:53.078Z,42.80
2019-04-06T02:19:23.943Z,44.97
2019-04-06T02:21:56.418Z,47.40
2019-04-06T02:24:26.851Z,46.97
2019-04-06T02:26:57.582Z,54.93
2019-04-06T02:29:28.201Z,45.93
2019-04-06T02:32:35.928Z,47.63
2019-04-06T02:35:36.041Z,64.30
2019-04-06T02:38:19.816Z,45.23
2019-04-06T02:41:15.313Z,45.47
2019-04-06T02:43:45.764Z,52.80
2019-04-06T02:46:16.497Z,51.87
2019-04-06T02:48:46.953Z,46.60
2019-04-06T02:51:17.416Z,49.53
2019-04-06T02:53:48.297Z,45.83
2019-04-06T02:56:18.742Z,44.77
2019-04-06T02:58:49.660Z,44.17
2019-04-06T03:01:20.212Z,44.97
2019-04-06T03:03:51.048Z,44.50
2019-04-06T03:06:24.766Z,46.13
2019-04-06T03:08:55.621Z,51.93
2019-04-06T03:11:27.093Z,45.57
2019-04-06T03:14:10.250Z,44.07
2019-04-06T03:16:40.773Z,52.50
2019-04-06T03:19:11.241Z,43.70
2019-04-06T03:21:41.828Z,45.57
2019-04-06T03:24:12.226Z,46.40
2019-04-06T03:26:42.741Z,44.70
2019-04-06T03:29:16.518Z,44.33
2019-04-06T03:31:47.351Z,52.80
2019-04-06T03:34:21.205Z,43.57
2019-04-06T03:36:50.054Z,44.60
2019-04-06T03:39:20.531Z,44.97
2019-04-06T03:41:53.387Z,44.67
2019-04-06T03:44:23.826Z,44.37
2019-04-06T03:46:54.235Z,50.77
2019-04-06T03:49:24.612Z,43.70
2019-04-06T03:51:55.487Z,44.67
2019-04-06T03:54:25.874Z,43.23
2019-04-06T03:56:56.385Z,51.53
2019-04-06T03:59:26.727Z,46.30
2019-04-06T04:01:59.071Z,43.90
2019-04-06T04:04:29.503Z,47.20
2019-04-06T04:07:00.202Z,42.73
2019-04-06T04:09:30.994Z,44.20
2019-04-06T04:12:02.144Z,44.37
2019-04-06T04:14:33.714Z,44.30
2019-04-06T04:17:04.240Z,51.87
2019-04-06T04:19:34.697Z,43.07
2019-04-06T04:22:05.041Z,44.93
2019-04-06T04:24:36.128Z,45.27
2019-04-06T04:27:07.199Z,42.37
2019-04-06T04:29:37.926Z,45.33
2019-04-06T04:32:08.414Z,49.40
2019-04-06T04:34:38.929Z,42.70
2019-04-06T04:37:09.281Z,42.10
2019-04-06T04:39:41.698Z,42.13
2019-04-06T04:42:12.041Z,42.40
2019-04-06T04:44:42.696Z,43.43
2019-04-06T04:47:13.298Z,43.07
2019-04-06T04:49:45.343Z,42.20
2019-04-06T04:52:15.666Z,45.53
2019-04-06T04:54:46.062Z,46.17
2019-04-06T04:57:16.490Z,48.03
2019-04-06T04:59:46.969Z,54.50
2019-04-06T05:02:17.386Z,46.13
2019-04-06T05:04:47.736Z,45.50
2019-04-06T05:07:19.220Z,42.03
2019-04-06T05:09:49.922Z,45.00
2019-04-06T05:12:20.381Z,44.60
2019-04-06T05:15:14.921Z,43.23
2019-04-06T05:17:52.868Z,49.53
2019-04-06T05:20:44.862Z,43.83
2019-04-06T05:23:30.584Z,43.60
2019-04-06T05:26:10.350Z,48.67
2019-04-06T05:28:41.270Z,42.17
2019-04-06T05:31:12.051Z,43.47
2019-04-06T05:33:42.434Z,43.57
2019-04-06T05:36:12.998Z,41.77
2019-04-06T05:38:43.469Z,41.97
2019-04-06T05:41:15.320Z,42.60
2019-04-06T05:43:53.942Z,41.13
2019-04-06T05:46:25.045Z,39.33
2019-04-06T05:48:55.541Z,39.33
2019-04-06T05:51:26.425Z,40.67
2019-04-06T05:53:56.958Z,51.50
2019-04-06T05:56:29.860Z,43.83
2019-04-06T05:59:00.327Z,41.63
2019-04-06T06:01:31.326Z,42.27
2019-04-06T06:04:04.767Z,44.47
2019-04-06T06:06:35.250Z,45.77
2019-04-06T06:09:25.113Z,43.87
2019-04-06T06:11:56.078Z,47.23
2019-04-06T06:14:26.812Z,44.57
2019-04-06T06:16:57.324Z,43.87
2019-04-06T06:19:27.790Z,44.70
2019-04-06T06:21:58.531Z,42.90
2019-04-06T06:24:31.144Z,45.67
2019-04-06T06:27:03.728Z,43.83
2019-04-06T06:29:34.391Z,46.70
2019-04-06T06:32:28.000Z,46.40
2019-04-06T06:35:00.085Z,44.47
2019-04-06T06:37:31.682Z,42.83
2019-04-06T06:40:02.285Z,46.23
2019-04-06T06:42:36.295Z,44.37
2019-04-06T06:45:07.319Z,44.17
2019-04-06T06:47:38.042Z,47.77
2019-04-06T06:50:11.548Z,46.43
2019-04-06T06:52:41.999Z,45.13
2019-04-06T06:55:12.635Z,47.33
2019-04-06T06:57:56.939Z,46.43
2019-04-06T07:00:41.664Z,46.20
2019-04-06T07:03:17.411Z,45.40
2019-04-06T07:06:19.316Z,48.30
2019-04-06T07:09:18.973Z,47.70
2019-04-06T07:12:00.100Z,48.63
2019-04-06T07:14:44.417Z,47.77
2019-04-06T07:17:26.638Z,46.80
2019-04-06T07:20:03.294Z,48.33
2019-04-06T07:22:37.715Z,51.37
2019-04-06T07:25:08.490Z,47.60
2019-04-06T07:27:44.919Z,48.87
2019-04-06T07:30:32.872Z,54.33
2019-04-06T07:33:42.609Z,48.33
2019-04-06T07:36:26.969Z,48.37
2019-04-06T07:39:27.631Z,51.37
2019-04-06T07:42:00.683Z,57.80
2019-04-06T07:45:11.532Z,50.30
2019-04-06T07:47:43.460Z,50.93
2019-04-06T07:50:16.547Z,52.43
2019-04-06T07:52:47.534Z,52.57
2019-04-06T07:55:18.297Z,51.53
2019-04-06T07:57:48.659Z,52.27
2019-04-06T08:00:31.971Z,52.40
2019-04-06T08:03:04.019Z,50.33
2019-04-06T08:05:38.370Z,49.23
2019-04-06T08:08:12.314Z,48.13
2019-04-06T08:10:45.189Z,50.10
2019-04-06T08:13:20.733Z,49.93
2019-04-06T08:15:54.363Z,50.50
2019-04-06T08:18:29.220Z,50.50
2019-04-06T08:21:00.641Z,50.30
2019-04-06T08:23:36.314Z,50.30
2019-04-06T08:26:12.756Z,50.87
2019-04-06T08:28:45.455Z,58.20
2019-04-06T08:31:33.703Z,50.10
2019-04-06T08:34:07.201Z,49.17
2019-04-06T08:36:44.038Z,49.43
2019-04-06T08:39:17.448Z,46.67
2019-04-06T08:41:50.903Z,46.30
2019-04-06T08:44:26.882Z,46.23
2019-04-06T08:47:02.719Z,44.97
2019-04-06T08:49:33.930Z,45.23
2019-04-06T08:52:11.760Z,44.30
2019-04-06T08:54:51.659Z,46.37
2019-04-06T08:57:26.208Z,46.17
2019-04-06T08:59:58.794Z,44.27
2019-04-06T09:02:35.759Z,44.83
2019-04-06T09:05:09.005Z,45.10
2019-04-06T09:07:53.882Z,43.60
2019-04-06T09:10:27.414Z,43.20
2019-04-06T09:13:09.141Z,44.37
2019-04-06T09:15:38.764Z,43.10
2019-04-06T09:18:36.039Z,42.17
2019-04-06T09:21:06.463Z,43.73
2019-04-06T09:23:58.318Z,43.63
2019-04-06T09:26:29.075Z,42.87
2019-04-06T09:28:59.941Z,41.83
2019-04-06T09:31:32.850Z,42.07
2019-04-06T09:34:03.344Z,40.90
2019-04-06T09:36:33.920Z,40.73
2019-04-06T09:39:06.446Z,41.17
2019-04-06T09:41:38.339Z,40.33
2019-04-06T09:44:15.205Z,41.20
2019-04-06T09:47:19.879Z,38.77
2019-04-06T09:50:27.059Z,37.00
2019-04-06T09:53:22.093Z,39.33
2019-04-06T09:56:05.983Z,38.43
2019-04-06T09:58:58.640Z,37.40
2019-04-06T10:01:42.972Z,36.70
2019-04-06T10:04:45.810Z,36.70
2019-04-06T10:07:41.870Z,35.97
2019-04-06T10:10:31.044Z,37.10
2019-04-06T10:13:27.500Z,36.47
2019-04-06T10:16:04.396Z,36.50
2019-04-06T10:19:00.177Z,36.43
2019-04-06T10:21:56.321Z,37.53
2019-04-06T10:24:35.839Z,36.73
2019-04-06T10:27:25.184Z,35.97
2019-04-06T10:30:16.526Z,34.93
2019-04-06T10:33:07.556Z,35.53
2019-04-06T10:36:16.114Z,35.67
2019-04-06T10:39:09.427Z,34.53
2019-04-06T10:41:58.764Z,34.03
2019-04-06T10:44:53.802Z,31.33
2019-04-06T10:47:46.618Z,30.67
2019-04-06T10:50:28.428Z,32.17
2019-04-06T10:53:20.026Z,32.33
2019-04-06T10:56:09.091Z,29.63
2019-04-06T10:59:02.806Z,29.80
2019-04-06T11:01:53.662Z,29.77
2019-04-06T11:04:34.580Z,27.97
2019-04-06T11:07:40.900Z,29.43
2019-04-06T11:10:41.979Z,23.83
2019-04-06T11:13:40.650Z,24.97
2019-04-06T11:16:25.014Z,24.43
2019-04-06T11:19:23.754Z,24.87
2019-04-06T11:22:09.391Z,21.73
2019-04-06T11:25:03.212Z,20.97
2019-04-06T11:27:47.493Z,22.77
2019-04-06T11:30:28.519Z,21.57
2019-04-06T11:33:40.576Z,21.80
2019-04-06T11:36:30.180Z,23.17
2019-04-06T11:39:26.522Z,22.70
2019-04-06T11:42:13.440Z,25.27
2019-04-06T11:45:23.907Z,25.07
2019-04-06T11:48:19.334Z,22.10
2019-04-06T11:51:10.210Z,22.97
2019-04-06T11:54:03.454Z,21.73
2019-04-06T11:56:52.835Z,22.47
2019-04-06T11:59:59.994Z,21.27
2019-04-06T12:03:00.947Z,22.20
2019-04-06T12:05:48.366Z,22.57
2019-04-06T12:08:36.637Z,24.03
2019-04-06T12:11:26.882Z,22.50
2019-04-06T12:14:25.189Z,24.60
2019-04-06T12:17:08.825Z,25.57
2019-04-06T12:19:56.934Z,27.30
2019-04-06T12:22:33.752Z,27.37
2019-04-06T12:25:12.495Z,27.63
2019-04-06T12:28:21.490Z,28.93
2019-04-06T12:31:08.222Z,29.27
2019-04-06T12:33:53.932Z,28.73
2019-04-06T12:36:49.356Z,29.00
2019-04-06T12:39:53.427Z,28.43
2019-04-06T12:42:38.659Z,28.50
2019-04-06T12:45:27.179Z,25.67
2019-04-06T12:48:33.937Z,27.00
2019-04-06T12:51:31.976Z,26.70
2019-04-06T12:54:23.825Z,25.90
2019-04-06T12:57:33.258Z,28.10
2019-04-06T13:00:32.286Z,25.43
2019-04-06T13:03:25.270Z,26.77
2019-04-06T13:06:09.362Z,27.10
2019-04-06T13:08:52.553Z,26.37
2019-04-06T13:11:51.248Z,25.97
2019-04-06T13:14:34.470Z,24.77
2019-04-06T13:17:22.385Z,23.17
2019-04-06T13:20:15.161Z,21.57
2019-04-06T13:23:18.218Z,23.37
2019-04-06T13:26:11.222Z,23.50
2019-04-06T13:29:12.851Z,23.87
2019-04-06T13:32:01.758Z,23.77
2019-04-06T13:34:54.828Z,22.93
2019-04-06T13:37:43.012Z,21.33
2019-04-06T13:40:35.561Z,23.60
2019-04-06T13:43:23.828Z,22.17
2019-04-06T13:46:10.202Z,23.30
2019-04-06T13:49:05.598Z,19.70
2019-04-06T13:51:45.683Z,18.90
2019-04-06T13:54:33.877Z,19.77
2019-04-06T13:57:23.588Z,17.47
2019-04-06T14:00:11.465Z,17.47
2019-04-06T14:03:08.462Z,17.17
2019-04-06T14:05:57.023Z,13.83
2019-04-06T14:08:43.299Z,13.30
2019-04-06T14:11:38.337Z,12.23
2019-04-06T14:14:23.156Z,14.87
2019-04-06T14:17:11.528Z,14.43
2019-04-06T14:20:08.375Z,12.63
2019-04-06T14:22:49.015Z,14.20
2019-04-06T14:25:37.705Z,13.10
2019-04-06T14:28:39.613Z,13.13
2019-04-06T14:31:47.280Z,12.90
2019-04-06T14:34:39.379Z,12.67
2019-04-06T14:37:44.528Z,13.30
2019-04-06T14:40:29.399Z,13.20
2019-04-06T14:43:10.103Z,13.70
2019-04-06T14:46:05.656Z,14.07
2019-04-06T14:49:09.185Z,13.63
2019-04-06T14:52:03.824Z,14.80
2019-04-06T14:55:08.908Z,13.80
2019-04-06T14:58:03.814Z,13.00
2019-04-06T15:01:04.055Z,14.00
2019-04-06T15:04:02.812Z,13.43
2019-04-06T15:06:54.818Z,13.47
2019-04-06T15:09:50.686Z,14.23
2019-04-06T15:12:51.177Z,11.87
2019-04-06T15:15:51.258Z,11.03
2019-04-06T15:18:47.379Z,11.47
2019-04-06T15:21:41.210Z,12.13
2019-04-06T15:24:18.249Z,11.47
2019-04-06T15:27:10.779Z,11.63
2019-04-06T15:29:52.344Z,11.80
2019-04-06T15:32:35.634Z,11.50
2019-04-06T15:35:37.663Z,10.93
2019-04-06T15:38:25.633Z,11.57
2019-04-06T15:41:09.032Z,11.37
2019-04-06T15:44:00.363Z,10.63
2019-04-06T15:47:09.550Z,11.27
2019-04-06T15:49:57.902Z,11.47
2019-04-06T15:52:49.002Z,12.10
2019-04-06T15:55:37.295Z,12.13
2019-04-06T15:58:22.420Z,12.27
2019-04-06T16:01:11.095Z,11.50
2019-04-06T16:03:55.395Z,12.13
2019-04-06T16:06:44.333Z,11.97
2019-04-06T16:09:43.311Z,12.10
2019-04-06T16:12:31.380Z,12.27
2019-04-06T16:15:15.306Z,12.13
2019-04-06T16:18:05.969Z,13.03
2019-04-06T16:20:42.622Z,13.30
2019-04-06T16:23:23.204Z,12.70
2019-04-06T16:26:09.203Z,13.63
2019-04-06T16:28:49.721Z,14.37
2019-04-06T16:31:57.174Z,14.50
2019-04-06T16:34:47.016Z,13.87
2019-04-06T16:37:48.559Z,15.33
2019-04-06T16:40:42.802Z,14.53
2019-04-06T16:44:18.592Z,15.10
2019-04-06T16:47:25.000Z,14.93
2019-04-06T16:50:33.557Z,15.07
2019-04-06T16:53:38.231Z,14.80
2019-04-06T16:56:26.606Z,14.23
2019-04-06T16:59:06.557Z,14.97
2019-04-06T17:01:57.398Z,14.33
2019-04-06T17:04:37.389Z,14.40
2019-04-06T17:07:35.809Z,14.77
2019-04-06T17:10:17.043Z,14.50
2019-04-06T17:13:12.364Z,14.60
2019-04-06T17:16:06.331Z,13.90
2019-04-06T17:18:58.304Z,14.43
2019-04-06T17:21:51.192Z,14.43
2019-04-06T17:24:29.591Z,15.23
2019-04-06T17:27:21.196Z,14.53
2019-04-06T17:30:04.132Z,14.43
2019-04-06T17:32:42.989Z,15.33
2019-04-06T17:35:44.760Z,13.40
2019-04-06T17:38:44.779Z,15.13
2019-04-06T17:41:39.923Z,14.80
2019-04-06T17:44:40.458Z,14.53
2019-04-06T17:47:24.267Z,14.73
2019-04-06T17:50:16.528Z,13.93
2019-04-06T17:53:02.183Z,15.07
2019-04-06T17:56:04.757Z,14.73
2019-04-06T17:59:00.152Z,15.00
2019-04-06T18:01:59.027Z,15.17
2019-04-06T18:05:04.486Z,15.83
2019-04-06T18:08:04.839Z,15.43
2019-04-06T18:11:11.323Z,17.73
2019-04-06T18:13:59.769Z,16.70
2019-04-06T18:16:38.602Z,17.97
2019-04-06T18:19:15.043Z,17.50
2019-04-06T18:21:49.160Z,17.90
2019-04-06T18:24:37.997Z,17.23
2019-04-06T18:27:08.194Z,15.83
2019-04-06T18:30:18.268Z,17.40
2019-04-06T18:33:27.080Z,17.90
2019-04-06T18:36:01.187Z,17.17
2019-04-06T18:38:52.218Z,19.87
2019-04-06T18:41:24.838Z,19.50
2019-04-06T18:44:05.782Z,18.63
2019-04-06T18:46:41.910Z,18.83
2019-04-06T18:49:15.248Z,19.23
2019-04-06T18:51:54.080Z,20.17
2019-04-06T18:54:34.695Z,19.83
2019-04-06T18:57:08.314Z,19.73
2019-04-06T18:59:39.120Z,20.33
2019-04-06T19:02:11.019Z,19.50
2019-04-06T19:04:42.146Z,19.60
2019-04-06T19:07:12.823Z,20.83
2019-04-06T19:09:44.135Z,19.27
2019-04-06T19:12:15.068Z,21.97
2019-04-06T19:14:48.410Z,22.00
2019-04-06T19:17:22.947Z,21.37
2019-04-06T19:20:15.078Z,20.50
2019-04-06T19:22:45.591Z,19.10
2019-04-06T19:25:16.122Z,19.90
2019-04-06T19:27:49.714Z,18.60
2019-04-06T19:30:23.785Z,20.20
2019-04-06T19:32:56.943Z,19.90
2019-04-06T19:35:28.652Z,19.33
2019-04-06T19:38:02.460Z,20.03
2019-04-06T19:40:34.575Z,18.87
2019-04-06T19:43:09.914Z,19.57
2019-04-06T19:45:40.830Z,19.80
2019-04-06T19:48:12.466Z,19.80
2019-04-06T19:50:43.176Z,19.23
2019-04-06T19:53:13.734Z,19.83
2019-04-06T19:55:47.018Z,19.00
2019-04-06T19:58:24.979Z,19.97
2019-04-06T20:01:06.951Z,19.70
2019-04-06T20:03:42.385Z,19.80
2019-04-06T20:06:16.898Z,19.97
2019-04-06T20:08:54.261Z,19.77
2019-04-06T20:11:25.570Z,20.50
2019-04-06T20:14:01.523Z,19.57
2019-04-06T20:16:37.268Z,20.10
2019-04-06T20:19:14.076Z,21.27
2019-04-06T20:21:54.846Z,20.60
2019-04-06T20:24:30.026Z,20.67
2019-04-06T20:29:59.242Z,22.20
2019-04-06T20:32:48.437Z,22.20
2019-04-06T20:35:14.818Z,22.60
2019-04-06T20:37:47.730Z,21.53
2019-04-06T20:40:23.423Z,22.20
2019-04-06T20:43:07.241Z,23.23
2019-04-06T20:45:59.138Z,22.87
2019-04-06T20:48:38.442Z,23.10
2019-04-06T20:51:25.029Z,24.20
2019-04-06T20:54:33.085Z,22.73
2019-04-06T20:57:30.859Z,23.90
2019-04-06T21:00:10.875Z,23.50
2019-04-06T21:02:45.986Z,23.50
2019-04-06T21:05:16.997Z,25.07
2019-04-06T21:07:48.494Z,22.90
2019-04-06T21:11:06.453Z,24.27
2019-04-06T21:13:36.954Z,24.47
2019-04-06T21:16:34.324Z,25.30
2019-04-06T21:19:56.275Z,25.00
2019-04-06T21:22:29.411Z,24.33
2019-04-06T21:25:02.548Z,25.93
2019-04-06T21:27:36.295Z,26.17
2019-04-06T21:35:32.544Z,24.73
2019-04-06T21:42:16.240Z,25.77
2019-04-06T21:44:53.820Z,25.80
2019-04-06T21:47:51.158Z,27.20
2019-04-06T21:51:24.280Z,27.50
2019-04-06T21:53:55.048Z,26.90
2019-04-06T21:56:34.162Z,27.87
2019-04-06T21:59:15.297Z,27.67
2019-04-06T22:01:56.187Z,26.83
2019-04-06T22:04:27.775Z,27.73
2019-04-06T22:06:59.185Z,26.90
2019-04-06T22:09:30.190Z,26.70
2019-04-06T22:12:05.339Z,27.70
2019-04-06T22:14:33.736Z,27.23
2019-04-06T22:17:07.464Z,26.90
2019-04-06T22:19:38.244Z,27.53
2019-04-06T22:22:10.088Z,25.77
2019-04-06T22:24:43.235Z,26.60
2019-04-06T22:27:14.214Z,27.90
2019-04-06T22:29:46.318Z,27.17
2019-04-06T22:32:17.901Z,27.87
2019-04-06T22:34:48.725Z,27.53
2019-04-06T22:37:28.188Z,26.37
2019-04-06T22:40:00.337Z,27.27
2019-04-06T22:42:31.689Z,26.60
2019-04-06T22:45:14.994Z,27.20
2019-04-06T22:47:56.501Z,27.00
2019-04-06T22:50:27.336Z,25.90
2019-04-06T22:53:00.483Z,29.27
2019-04-06T22:55:35.372Z,28.03
2019-04-06T22:58:06.428Z,26.50
2019-04-06T23:01:11.665Z,26.70
2019-04-06T23:03:48.782Z,28.00
2019-04-06T23:09:59.941Z,27.10
2019-04-06T23:12:32.564Z,30.07
2019-04-06T23:15:19.027Z,28.67
2019-04-06T23:17:52.188Z,28.93
2019-04-06T23:20:26.789Z,29.97
2019-04-06T23:22:59.709Z,37.50
2019-04-06T23:25:33.494Z,28.93
2019-04-06T23:28:04.843Z,30.03
2019-04-06T23:30:37.485Z,32.80
2019-04-06T23:33:10.292Z,30.33
2019-04-06T23:35:41.318Z,32.00
2019-04-06T23:38:13.997Z,30.07
2019-04-06T23:40:44.357Z,45.67
2019-04-06T23:43:14.956Z,32.67
2019-04-06T23:45:51.495Z,33.90
2019-04-06T23:48:22.438Z,43.43
2019-04-06T23:50:56.639Z,34.53
2019-04-06T23:53:30.548Z,34.07
2019-04-06T23:56:10.973Z,33.60
2019-04-06T23:58:43.149Z,33.33
